createdAt,value
2016-12-02T00:00:11.502Z,8.1
2016-12-02T00:01:11.529Z,8.15
2016-12-02T00:02:11.531Z,8.08
2016-12-02T00:03:11.546Z,8.1
2016-12-02T00:04:11.563Z,8.05
2016-12-02T00:05:11.575Z,8.1
2016-12-02T00:06:11.588Z,8.03
2016-12-02T00:07:11.917Z,8.12
2016-12-02T00:08:11.617Z,8.13
2016-12-02T00:09:11.633Z,8.08
2016-12-02T00:10:11.646Z,8.08
2016-12-02T00:11:11.659Z,8.09
2016-12-02T00:12:11.671Z,8.05
2016-12-02T00:13:11.688Z,8.09
2016-12-02T00:14:11.709Z,8.08
2016-12-02T00:15:11.716Z,8.08
2016-12-02T00:16:11.729Z,8.01
2016-12-02T00:17:11.746Z,8.09
2016-12-02T00:18:11.763Z,8.06
2016-12-02T00:19:11.771Z,8.09
2016-12-02T00:20:11.788Z,8.12
2016-12-02T00:21:11.799Z,8.13
2016-12-02T00:22:11.814Z,8.15
2016-12-02T00:23:11.826Z,8.12
2016-12-02T00:24:11.842Z,8.15
2016-12-02T00:25:11.854Z,8.16
2016-12-02T00:26:11.874Z,8.16
2016-12-02T00:27:11.885Z,8.16
2016-12-02T00:28:11.901Z,8.12
2016-12-02T00:29:11.910Z,8.13
2016-12-02T00:30:11.925Z,8.13
2016-12-02T00:31:11.938Z,8.16
2016-12-02T00:32:11.953Z,8.13
2016-12-02T00:33:11.968Z,8.15
2016-12-02T00:34:11.989Z,8.15
2016-12-02T00:35:12.309Z,8.2
2016-12-02T00:36:12.010Z,8.15
2016-12-02T00:37:12.023Z,8.18
2016-12-02T00:38:12.039Z,8.15
2016-12-02T00:39:12.054Z,8.16
2016-12-02T00:40:12.068Z,8.15
2016-12-02T00:41:12.081Z,8.16
2016-12-02T00:42:12.096Z,8.16
2016-12-02T00:43:12.108Z,8.19
2016-12-02T00:44:12.127Z,8.16
2016-12-02T00:45:12.138Z,8.19
2016-12-02T00:46:12.148Z,8.08
2016-12-02T00:47:12.168Z,8.19
2016-12-02T00:48:12.495Z,8.16
2016-12-02T00:49:12.193Z,8.18
2016-12-02T00:50:12.206Z,8.27
2016-12-02T00:51:12.224Z,8.23
2016-12-02T00:52:12.233Z,8.23
2016-12-02T00:53:12.253Z,8.27
2016-12-02T00:54:12.264Z,8.18
2016-12-02T00:55:12.278Z,8.2
2016-12-02T00:56:12.292Z,8.1
2016-12-02T00:57:12.304Z,8.18
2016-12-02T00:58:12.320Z,8.18
2016-12-02T00:59:12.331Z,8.18
2016-12-02T01:00:12.354Z,8.3
2016-12-02T01:01:12.363Z,8.15
2016-12-02T01:02:12.376Z,8.18
2016-12-02T01:03:12.390Z,8.23
2016-12-02T01:04:12.402Z,8.23
2016-12-02T01:05:12.423Z,8.23
2016-12-02T01:06:12.434Z,8.26
2016-12-02T01:07:12.451Z,8.27
2016-12-02T01:08:12.459Z,8.27
2016-12-02T01:09:12.471Z,8.24
2016-12-02T01:10:12.489Z,8.3
2016-12-02T01:11:12.511Z,8.19
2016-12-02T01:12:12.516Z,8.27
2016-12-02T01:13:12.529Z,8.27
2016-12-02T01:14:12.556Z,8.31
2016-12-02T01:15:12.558Z,8.28
2016-12-02T01:16:12.572Z,8.31
2016-12-02T01:17:12.585Z,8.3
2016-12-02T01:18:12.601Z,8.24
2016-12-02T01:19:12.615Z,8.31
2016-12-02T01:20:12.634Z,8.36
2016-12-02T01:21:12.640Z,8.2
2016-12-02T01:22:12.659Z,8.34
2016-12-02T01:23:12.672Z,8.28
2016-12-02T01:24:12.683Z,8.27
2016-12-02T01:25:12.696Z,8.31
2016-12-02T01:26:12.713Z,8.26
2016-12-02T01:27:12.728Z,8.28
2016-12-02T01:28:12.744Z,8.19
2016-12-02T01:29:12.756Z,8.33
2016-12-02T01:30:12.769Z,8.24
2016-12-02T01:31:12.785Z,8.24
2016-12-02T01:32:12.799Z,8.27
2016-12-02T01:33:12.811Z,8.34
2016-12-02T01:34:12.825Z,8.33
2016-12-02T01:35:12.843Z,8.33
2016-12-02T01:36:12.853Z,8.24
2016-12-02T01:37:12.869Z,8.19
2016-12-02T01:38:12.885Z,8.19
2016-12-02T01:39:12.900Z,8.31
2016-12-02T01:40:12.909Z,8.26
2016-12-02T01:41:12.925Z,8.28
2016-12-02T01:42:12.939Z,8.2
2016-12-02T01:43:13.277Z,8.28
2016-12-02T01:44:12.979Z,8.23
2016-12-02T01:45:12.985Z,8.24
2016-12-02T01:46:13.025Z,8.23
2016-12-02T01:47:13.011Z,8.2
2016-12-02T01:48:13.022Z,8.26
2016-12-02T01:49:13.039Z,8.26
2016-12-02T01:50:13.053Z,8.27
2016-12-02T01:51:13.064Z,8.19
2016-12-02T01:52:13.107Z,8.26
2016-12-02T01:53:13.096Z,8.37
2016-12-02T01:54:13.109Z,8.36
2016-12-02T01:55:13.125Z,8.33
2016-12-02T01:56:13.174Z,8.31
2016-12-02T01:57:13.155Z,8.28
2016-12-02T01:58:13.166Z,8.34
2016-12-02T01:59:13.182Z,8.36
2016-12-02T02:00:13.191Z,8.33
2016-12-02T02:01:13.209Z,8.3
2016-12-02T02:02:13.226Z,8.24
2016-12-02T02:03:13.243Z,8.33
2016-12-02T02:04:13.253Z,8.36
2016-12-02T02:05:13.262Z,8.37
2016-12-02T02:06:13.279Z,8.31
2016-12-02T02:07:13.293Z,8.33
2016-12-02T02:08:13.308Z,8.37
2016-12-02T02:09:13.351Z,8.36
2016-12-02T02:10:13.339Z,8.37
2016-12-02T02:11:13.351Z,8.38
2016-12-02T02:12:13.375Z,8.36
2016-12-02T02:13:13.381Z,8.37
2016-12-02T02:14:13.391Z,8.37
2016-12-02T02:15:13.408Z,8.33
2016-12-02T02:16:13.420Z,8.31
2016-12-02T02:17:13.436Z,8.36
2016-12-02T02:18:13.453Z,8.31
2016-12-02T02:19:13.471Z,8.36
2016-12-02T02:20:13.481Z,8.33
2016-12-02T02:21:13.492Z,8.37
2016-12-02T02:22:13.505Z,8.37
2016-12-02T02:23:13.521Z,8.37
2016-12-02T02:24:13.531Z,8.33
2016-12-02T02:25:13.549Z,8.38
2016-12-02T02:26:13.563Z,8.36
2016-12-02T02:27:13.578Z,8.28
2016-12-02T02:28:13.592Z,8.36
2016-12-02T02:29:13.606Z,8.31
2016-12-02T02:30:13.620Z,8.37
2016-12-02T02:31:13.634Z,8.34
2016-12-02T02:32:13.648Z,8.48
2016-12-02T02:33:13.660Z,8.42
2016-12-02T02:34:13.678Z,8.41
2016-12-02T02:35:13.690Z,8.42
2016-12-02T02:36:13.705Z,8.45
2016-12-02T02:37:13.719Z,8.45
2016-12-02T02:38:13.732Z,8.37
2016-12-02T02:39:13.748Z,8.36
2016-12-02T02:40:13.759Z,8.44
2016-12-02T02:41:13.777Z,8.46
2016-12-02T02:42:13.792Z,8.45
2016-12-02T02:43:13.805Z,8.33
2016-12-02T02:44:13.823Z,8.34
2016-12-02T02:45:13.833Z,8.38
2016-12-02T02:46:13.848Z,8.31
2016-12-02T02:47:13.862Z,8.49
2016-12-02T02:48:13.877Z,8.34
2016-12-02T02:49:13.917Z,8.31
2016-12-02T02:50:13.911Z,8.33
2016-12-02T02:51:13.917Z,8.42
2016-12-02T02:52:13.933Z,8.34
2016-12-02T02:53:13.951Z,8.38
2016-12-02T02:54:13.959Z,8.36
2016-12-02T02:55:13.978Z,8.36
2016-12-02T02:56:13.992Z,8.34
2016-12-02T02:57:14.006Z,8.37
2016-12-02T02:58:14.016Z,8.33
2016-12-02T02:59:14.033Z,8.3
2016-12-02T03:00:14.046Z,8.38
2016-12-02T03:01:14.060Z,8.36
2016-12-02T03:02:14.076Z,8.37
2016-12-02T03:03:14.095Z,8.36
2016-12-02T03:04:14.101Z,8.37
2016-12-02T03:05:14.114Z,8.38
2016-12-02T03:06:14.130Z,8.34
2016-12-02T03:07:14.145Z,8.3
2016-12-02T03:08:14.159Z,8.33
2016-12-02T03:09:14.175Z,8.37
2016-12-02T03:10:14.191Z,8.31
2016-12-02T03:11:14.202Z,8.33
2016-12-02T03:12:14.542Z,8.33
2016-12-02T03:13:14.233Z,8.36
2016-12-02T03:14:14.269Z,8.34
2016-12-02T03:15:14.257Z,8.37
2016-12-02T03:16:14.274Z,8.33
2016-12-02T03:17:14.286Z,8.34
2016-12-02T03:18:14.301Z,8.41
2016-12-02T03:19:14.315Z,8.33
2016-12-02T03:20:14.329Z,8.31
2016-12-02T03:21:14.346Z,8.31
2016-12-02T03:22:14.361Z,8.36
2016-12-02T03:23:14.377Z,8.34
2016-12-02T03:24:14.386Z,8.48
2016-12-02T03:25:14.399Z,8.33
2016-12-02T03:26:14.417Z,8.31
2016-12-02T03:27:14.437Z,8.36
2016-12-02T03:28:14.445Z,8.37
2016-12-02T03:29:14.466Z,8.36
2016-12-02T03:30:14.474Z,8.34
2016-12-02T03:31:14.486Z,8.37
2016-12-02T03:32:14.500Z,8.33
2016-12-02T03:33:14.516Z,8.33
2016-12-02T03:34:14.532Z,8.33
2016-12-02T03:35:14.545Z,8.38
2016-12-02T03:36:14.561Z,8.34
2016-12-02T03:37:14.575Z,8.28
2016-12-02T03:38:14.586Z,8.31
2016-12-02T03:39:14.601Z,8.34
2016-12-02T03:40:14.621Z,8.33
2016-12-02T03:41:14.628Z,8.38
2016-12-02T03:42:14.647Z,8.36
2016-12-02T03:43:14.658Z,8.28
2016-12-02T03:44:14.676Z,8.38
2016-12-02T03:45:14.720Z,8.37
2016-12-02T03:46:14.706Z,8.34
2016-12-02T03:47:14.726Z,8.37
2016-12-02T03:48:14.733Z,8.28
2016-12-02T03:49:14.743Z,8.31
2016-12-02T03:50:14.761Z,8.31
2016-12-02T03:51:14.777Z,8.38
2016-12-02T03:52:14.792Z,8.33
2016-12-02T03:53:14.803Z,8.27
2016-12-02T03:54:14.815Z,8.3
2016-12-02T03:55:14.833Z,8.34
2016-12-02T03:56:14.845Z,8.31
2016-12-02T03:57:14.865Z,8.31
2016-12-02T03:58:14.872Z,8.34
2016-12-02T03:59:14.889Z,8.2
2016-12-02T04:00:14.904Z,8.33
2016-12-02T04:01:14.914Z,8.24
2016-12-02T04:02:14.933Z,8.19
2016-12-02T04:03:14.942Z,8.33
2016-12-02T04:04:14.957Z,8.34
2016-12-02T04:05:14.973Z,8.2
2016-12-02T04:06:14.989Z,8.31
2016-12-02T04:07:15.002Z,8.31
2016-12-02T04:08:15.013Z,8.34
2016-12-02T04:09:15.030Z,8.23
2016-12-02T04:10:15.043Z,8.2
2016-12-02T04:11:15.059Z,8.23
2016-12-02T04:12:15.090Z,8.2
2016-12-02T04:13:15.089Z,8.2
2016-12-02T04:14:15.103Z,8.24
2016-12-02T04:15:15.114Z,8.27
2016-12-02T04:16:15.130Z,8.26
2016-12-02T04:17:15.146Z,8.2
2016-12-02T04:18:15.159Z,8.23
2016-12-02T04:19:15.170Z,8.18
2016-12-02T04:20:15.201Z,8.19
2016-12-02T04:21:15.202Z,8.26
2016-12-02T04:22:15.214Z,8.19
2016-12-02T04:23:15.229Z,8.15
2016-12-02T04:24:15.242Z,8.16
2016-12-02T04:25:15.258Z,8.23
2016-12-02T04:26:15.271Z,8.13
2016-12-02T04:27:15.285Z,8.18
2016-12-02T04:28:15.299Z,8.13
2016-12-02T04:29:15.312Z,8.16
2016-12-02T04:30:15.325Z,8.18
2016-12-02T04:31:15.341Z,8.1
2016-12-02T04:32:15.361Z,8.18
2016-12-02T04:33:15.367Z,8.15
2016-12-02T04:34:15.382Z,8.16
2016-12-02T04:35:15.423Z,8.18
2016-12-02T04:36:15.412Z,8.12
2016-12-02T04:37:15.424Z,8.12
2016-12-02T04:38:15.444Z,8.18
2016-12-02T04:39:15.459Z,8.12
2016-12-02T04:40:15.794Z,8.12
2016-12-02T04:41:15.486Z,8.1
2016-12-02T04:42:15.505Z,8.1
2016-12-02T04:43:15.511Z,8.15
2016-12-02T04:44:15.526Z,8.1
2016-12-02T04:45:15.543Z,8.2
2016-12-02T04:46:15.556Z,8.15
2016-12-02T04:47:15.568Z,8.18
2016-12-02T04:48:15.910Z,8.16
2016-12-02T04:49:15.597Z,8.15
2016-12-02T04:50:15.642Z,8.1
2016-12-02T04:51:15.623Z,8.15
2016-12-02T04:52:15.644Z,8.18
2016-12-02T04:53:15.653Z,8.09
2016-12-02T04:54:15.667Z,8.09
2016-12-02T04:55:15.680Z,8.09
2016-12-02T04:56:15.695Z,8.06
2016-12-02T04:57:15.711Z,8.06
2016-12-02T04:58:15.724Z,8.1
2016-12-02T04:59:15.736Z,8.01
2016-12-02T05:00:15.751Z,7.97
2016-12-02T05:01:15.765Z,8.05
2016-12-02T05:02:15.781Z,8
2016-12-02T05:03:15.796Z,7.95
2016-12-02T05:04:16.130Z,8.03
2016-12-02T05:05:15.825Z,7.93
2016-12-02T05:06:15.837Z,7.95
2016-12-02T05:07:15.850Z,7.97
2016-12-02T05:08:15.865Z,8.03
2016-12-02T05:09:15.880Z,8.01
2016-12-02T05:10:15.895Z,7.94
2016-12-02T05:11:15.959Z,7.98
2016-12-02T05:12:15.927Z,7.97
2016-12-02T05:13:15.947Z,7.94
2016-12-02T05:14:15.949Z,7.91
2016-12-02T05:15:15.976Z,8.01
2016-12-02T05:16:15.984Z,7.93
2016-12-02T05:17:15.995Z,7.88
2016-12-02T05:18:16.007Z,7.93
2016-12-02T05:19:16.024Z,7.88
2016-12-02T05:20:16.039Z,7.93
2016-12-02T05:21:16.063Z,7.93
2016-12-02T05:22:16.063Z,7.87
2016-12-02T05:23:16.200Z,7.91
2016-12-02T05:24:16.209Z,7.76
2016-12-02T05:25:16.217Z,7.8
2016-12-02T05:26:16.227Z,7.77
2016-12-02T05:27:16.235Z,7.85
2016-12-02T05:28:16.258Z,7.87
2016-12-02T05:29:16.267Z,7.82
2016-12-02T05:30:16.274Z,7.77
2016-12-02T05:31:16.189Z,7.82
2016-12-02T05:32:16.318Z,7.82
2016-12-02T05:33:16.328Z,7.8
2016-12-02T05:34:16.338Z,7.77
2016-12-02T05:35:16.344Z,7.7
2016-12-02T05:36:16.354Z,7.72
2016-12-02T05:37:16.386Z,7.72
2016-12-02T05:38:16.384Z,7.6
2016-12-02T05:39:16.393Z,7.66
2016-12-02T05:40:16.402Z,7.73
2016-12-02T05:41:16.411Z,7.61
2016-12-02T05:42:16.419Z,7.57
2016-12-02T05:43:16.419Z,7.6
2016-12-02T05:44:16.443Z,7.58
2016-12-02T05:45:16.475Z,7.57
2016-12-02T05:46:16.484Z,7.51
2016-12-02T05:47:16.485Z,7.53
2016-12-02T05:48:16.493Z,7.5
2016-12-02T05:49:16.502Z,7.48
2016-12-02T05:50:16.511Z,7.47
2016-12-02T05:51:16.519Z,7.53
2016-12-02T05:52:16.517Z,7.53
2016-12-02T05:53:16.525Z,7.5
2016-12-02T05:54:16.534Z,7.47
2016-12-02T05:55:16.542Z,7.48
2016-12-02T05:56:16.539Z,7.43
2016-12-02T05:57:16.570Z,7.48
2016-12-02T05:58:16.561Z,7.4
2016-12-02T05:59:16.593Z,7.47
2016-12-02T06:00:16.620Z,7.47
2016-12-02T06:01:16.924Z,7.45
2016-12-02T06:02:16.622Z,7.43
2016-12-02T06:03:16.637Z,7.43
2016-12-02T06:04:16.663Z,7.42
2016-12-02T06:05:16.664Z,7.43
2016-12-02T06:06:16.691Z,7.38
2016-12-02T06:07:17.001Z,7.36
2016-12-02T06:08:16.698Z,7.47
2016-12-02T06:09:16.712Z,7.35
2016-12-02T06:10:16.725Z,7.33
2016-12-02T06:11:16.740Z,7.36
2016-12-02T06:12:16.765Z,7.38
2016-12-02T06:13:17.089Z,7.36
2016-12-02T06:14:16.807Z,7.39
2016-12-02T06:15:16.797Z,7.35
2016-12-02T06:16:16.811Z,7.31
2016-12-02T06:17:16.832Z,7.33
2016-12-02T06:18:16.836Z,7.28
2016-12-02T06:19:17.171Z,7.33
2016-12-02T06:20:16.869Z,7.28
2016-12-02T06:21:16.884Z,7.29
2016-12-02T06:22:16.891Z,7.28
2016-12-02T06:23:16.911Z,7.36
2016-12-02T06:24:16.918Z,7.31
2016-12-02T06:25:16.941Z,7.31
2016-12-02T06:26:16.943Z,7.33
2016-12-02T06:27:16.970Z,7.31
2016-12-02T06:28:16.978Z,7.33
2016-12-02T06:29:17.002Z,7.29
2016-12-02T06:30:17.002Z,7.32
2016-12-02T06:31:17.022Z,7.2
2016-12-02T06:32:17.056Z,7.24
2016-12-02T06:33:17.048Z,7.33
2016-12-02T06:34:17.060Z,7.18
2016-12-02T06:35:17.071Z,7.17
2016-12-02T06:36:17.084Z,7.29
2016-12-02T06:37:17.100Z,7.2
2016-12-02T06:38:17.110Z,7.2
2016-12-02T06:39:17.124Z,7.15
2016-12-02T06:40:17.138Z,7.15
2016-12-02T06:41:17.156Z,7.17
2016-12-02T06:42:17.166Z,7.17
2016-12-02T06:43:17.505Z,7.14
2016-12-02T06:44:17.190Z,7.15
2016-12-02T06:45:17.217Z,7.11
2016-12-02T06:46:17.540Z,7.13
2016-12-02T06:47:17.234Z,7.11
2016-12-02T06:48:17.244Z,7.11
2016-12-02T06:49:17.261Z,7.1
2016-12-02T06:50:17.278Z,7.07
2016-12-02T06:51:17.295Z,7.02
2016-12-02T06:52:17.299Z,7.05
2016-12-02T06:53:17.322Z,7.13
2016-12-02T06:54:17.326Z,7.07
2016-12-02T06:55:17.343Z,7.06
2016-12-02T06:56:17.672Z,7.07
2016-12-02T06:57:17.364Z,7.05
2016-12-02T06:58:17.379Z,7.03
2016-12-02T06:59:17.393Z,6.96
2016-12-02T07:00:17.406Z,6.97
2016-12-02T07:01:17.430Z,7.05
2016-12-02T07:02:17.436Z,7.03
2016-12-02T07:03:17.458Z,7.02
2016-12-02T07:04:17.460Z,6.89
2016-12-02T07:05:17.477Z,6.95
2016-12-02T07:06:17.486Z,6.96
2016-12-02T07:07:17.497Z,6.87
2016-12-02T07:08:17.512Z,6.93
2016-12-02T07:09:17.538Z,6.89
2016-12-02T07:10:17.540Z,6.95
2016-12-02T07:11:17.564Z,6.95
2016-12-02T07:12:17.575Z,6.88
2016-12-02T07:13:17.585Z,6.89
2016-12-02T07:14:17.594Z,6.89
2016-12-02T07:15:17.608Z,6.88
2016-12-02T07:16:17.619Z,6.88
2016-12-02T07:17:17.644Z,6.84
2016-12-02T07:18:17.644Z,6.89
2016-12-02T07:19:17.660Z,6.77
2016-12-02T07:20:17.672Z,6.87
2016-12-02T07:21:17.692Z,6.81
2016-12-02T07:22:17.707Z,6.92
2016-12-02T07:23:17.730Z,6.79
2016-12-02T07:24:17.727Z,6.82
2016-12-02T07:25:17.743Z,6.74
2016-12-02T07:26:17.757Z,6.82
2016-12-02T07:27:18.081Z,6.82
2016-12-02T07:28:17.789Z,6.84
2016-12-02T07:29:17.806Z,6.74
2016-12-02T07:30:17.805Z,6.77
2016-12-02T07:31:17.828Z,6.78
2016-12-02T07:32:17.837Z,6.77
2016-12-02T07:33:17.855Z,6.82
2016-12-02T07:34:17.860Z,6.66
2016-12-02T07:35:17.873Z,6.74
2016-12-02T07:36:17.885Z,6.72
2016-12-02T07:37:17.907Z,6.7
2016-12-02T07:38:17.915Z,6.7
2016-12-02T07:39:17.927Z,6.67
2016-12-02T07:40:17.942Z,6.67
2016-12-02T07:41:17.968Z,6.7
2016-12-02T07:42:17.974Z,6.7
2016-12-02T07:43:17.983Z,6.67
2016-12-02T07:44:17.993Z,6.75
2016-12-02T07:45:18.007Z,6.63
2016-12-02T07:46:18.074Z,6.72
2016-12-02T07:47:18.038Z,6.66
2016-12-02T07:48:18.163Z,6.63
2016-12-02T07:49:18.059Z,6.72
2016-12-02T07:50:18.072Z,6.67
2016-12-02T07:51:18.087Z,6.69
2016-12-02T07:52:18.099Z,6.66
2016-12-02T07:53:18.126Z,6.74
2016-12-02T07:54:18.131Z,6.72
2016-12-02T07:55:18.132Z,6.72
2016-12-02T07:56:18.160Z,6.77
2016-12-02T07:57:18.173Z,6.77
2016-12-02T07:58:18.175Z,6.72
2016-12-02T07:59:18.302Z,6.75
2016-12-02T08:00:18.198Z,6.72
2016-12-02T08:01:18.230Z,6.72
2016-12-02T08:02:18.343Z,6.77
2016-12-02T08:03:18.248Z,6.69
2016-12-02T08:04:18.252Z,6.66
2016-12-02T08:05:18.587Z,6.72
2016-12-02T08:06:18.395Z,6.7
2016-12-02T08:07:18.307Z,6.7
2016-12-02T08:08:18.305Z,6.77
2016-12-02T08:09:18.316Z,6.72
2016-12-02T08:10:18.331Z,6.75
2016-12-02T08:11:18.678Z,6.7
2016-12-02T08:12:18.475Z,6.66
2016-12-02T08:13:18.367Z,6.74
2016-12-02T08:14:18.693Z,6.81
2016-12-02T08:15:18.480Z,6.79
2016-12-02T08:16:18.404Z,6.82
2016-12-02T08:17:18.421Z,6.88
2016-12-02T08:18:18.549Z,6.88
2016-12-02T08:19:18.446Z,6.95
2016-12-02T08:20:18.577Z,6.93
2016-12-02T08:21:18.472Z,6.95
2016-12-02T08:22:18.484Z,7.06
2016-12-02T08:23:18.498Z,7.03
2016-12-02T08:24:18.514Z,7.06
2016-12-02T08:25:18.531Z,7.02
2016-12-02T08:26:18.565Z,6.99
2016-12-02T08:27:18.554Z,7.05
2016-12-02T08:28:18.565Z,7.03
2016-12-02T08:29:18.572Z,7.05
2016-12-02T08:30:18.588Z,7.03
2016-12-02T08:31:18.637Z,7.02
2016-12-02T08:32:18.615Z,6.92
2016-12-02T08:33:18.630Z,6.92
2016-12-02T08:34:18.645Z,7.02
2016-12-02T08:35:18.652Z,7.05
2016-12-02T08:36:18.670Z,6.92
2016-12-02T08:37:18.683Z,6.92
2016-12-02T08:38:18.697Z,6.97
2016-12-02T08:39:18.725Z,6.95
2016-12-02T08:40:18.722Z,6.92
2016-12-02T08:41:18.745Z,6.92
2016-12-02T08:42:18.748Z,6.93
2016-12-02T08:43:18.765Z,6.92
2016-12-02T08:44:18.783Z,6.93
2016-12-02T08:45:18.784Z,6.92
2016-12-02T08:46:18.799Z,6.95
2016-12-02T08:47:19.570Z,6.93
2016-12-02T08:48:18.828Z,6.89
2016-12-02T08:49:18.843Z,6.95
2016-12-02T08:50:18.852Z,6.88
2016-12-02T08:51:18.865Z,6.88
2016-12-02T08:52:18.877Z,6.87
2016-12-02T08:53:18.890Z,6.96
2016-12-02T08:54:18.901Z,6.92
2016-12-02T08:55:18.927Z,6.88
2016-12-02T08:56:18.926Z,6.88
2016-12-02T08:57:18.943Z,6.85
2016-12-02T08:58:18.953Z,6.93
2016-12-02T08:59:18.974Z,6.96
2016-12-02T09:00:18.983Z,6.93
2016-12-02T09:01:19.334Z,6.92
2016-12-02T09:02:19.014Z,6.96
2016-12-02T09:03:19.350Z,6.97
2016-12-02T09:04:19.033Z,6.92
2016-12-02T09:05:19.045Z,6.96
2016-12-02T09:06:19.056Z,6.92
2016-12-02T09:07:19.077Z,6.97
2016-12-02T09:08:19.086Z,6.88
2016-12-02T09:09:19.105Z,6.92
2016-12-02T09:10:19.111Z,6.92
2016-12-02T09:11:19.124Z,6.88
2016-12-02T09:12:19.138Z,6.93
2016-12-02T09:13:19.158Z,6.95
2016-12-02T09:14:19.163Z,6.95
2016-12-02T09:15:19.184Z,6.93
2016-12-02T09:16:19.189Z,6.95
2016-12-02T09:17:19.202Z,6.93
2016-12-02T09:18:19.210Z,6.87
2016-12-02T09:19:19.234Z,6.95
2016-12-02T09:20:19.245Z,6.84
2016-12-02T09:21:19.257Z,6.92
2016-12-02T09:22:19.272Z,6.93
2016-12-02T09:23:19.280Z,6.96
2016-12-02T09:24:19.293Z,6.92
2016-12-02T09:25:19.309Z,6.95
2016-12-02T09:26:19.333Z,7.03
2016-12-02T09:27:19.330Z,6.97
2016-12-02T09:28:19.373Z,7.07
2016-12-02T09:29:19.360Z,7.13
2016-12-02T09:30:19.373Z,7.11
2016-12-02T09:31:19.382Z,7.15
2016-12-02T09:32:19.400Z,7.13
2016-12-02T09:33:19.408Z,7.2
2016-12-02T09:34:19.426Z,7.17
2016-12-02T09:35:19.433Z,7.2
2016-12-02T09:36:19.448Z,7.21
2016-12-02T09:37:19.469Z,7.15
2016-12-02T09:38:19.479Z,7.13
2016-12-02T09:39:19.491Z,7.13
2016-12-02T09:40:19.506Z,7.15
2016-12-02T09:41:19.521Z,7.14
2016-12-02T09:42:19.527Z,7.18
2016-12-02T09:43:19.550Z,7.18
2016-12-02T09:44:19.554Z,7.18
2016-12-02T09:45:19.569Z,7.18
2016-12-02T09:46:19.636Z,7.13
2016-12-02T09:47:19.590Z,7.15
2016-12-02T09:48:19.605Z,7.21
2016-12-02T09:49:19.627Z,7.2
2016-12-02T09:50:19.635Z,7.18
2016-12-02T09:51:19.955Z,7.15
2016-12-02T09:52:19.662Z,7.14
2016-12-02T09:53:19.678Z,7.1
2016-12-02T09:54:19.685Z,7.15
2016-12-02T09:55:19.694Z,7.15
2016-12-02T09:56:19.719Z,7.17
2016-12-02T09:57:19.726Z,7.23
2016-12-02T09:58:19.735Z,7.14
2016-12-02T09:59:19.748Z,7.18
2016-12-02T10:00:19.764Z,7.2
2016-12-02T10:01:19.779Z,7.15
2016-12-02T10:02:19.796Z,7.15
2016-12-02T10:03:19.803Z,7.15
2016-12-02T10:04:19.817Z,7.21
2016-12-02T10:05:19.830Z,7.21
2016-12-02T10:06:19.841Z,7.15
2016-12-02T10:07:19.864Z,7.1
2016-12-02T10:08:19.867Z,7.18
2016-12-02T10:09:19.881Z,7.2
2016-12-02T10:10:19.893Z,7.14
2016-12-02T10:11:19.905Z,7.15
2016-12-02T10:12:19.926Z,7.17
2016-12-02T10:13:19.934Z,7.24
2016-12-02T10:14:19.948Z,7.14
2016-12-02T10:15:19.960Z,7.18
2016-12-02T10:16:19.973Z,7.14
2016-12-02T10:17:19.985Z,7.15
2016-12-02T10:18:20.004Z,7.13
2016-12-02T10:19:20.330Z,7.15
2016-12-02T10:20:20.029Z,7.13
2016-12-02T10:21:20.039Z,7.13
2016-12-02T10:22:20.373Z,7.14
2016-12-02T10:23:20.071Z,7.17
2016-12-02T10:24:20.081Z,7.14
2016-12-02T10:25:20.094Z,7.18
2016-12-02T10:26:20.105Z,7.15
2016-12-02T10:27:20.127Z,7.17
2016-12-02T10:28:20.130Z,7.15
2016-12-02T10:29:20.145Z,7.21
2016-12-02T10:30:20.275Z,7.13
2016-12-02T10:31:20.294Z,7.2
2016-12-02T10:32:20.391Z,7.21
2016-12-02T10:33:20.400Z,7.31
2016-12-02T10:34:20.407Z,7.36
2016-12-02T10:35:20.325Z,7.28
2016-12-02T10:36:20.436Z,7.33
2016-12-02T10:37:20.333Z,7.32
2016-12-02T10:38:20.340Z,7.29
2016-12-02T10:39:20.349Z,7.38
2016-12-02T10:40:20.358Z,7.38
2016-12-02T10:41:20.413Z,7.29
2016-12-02T10:42:20.406Z,7.36
2016-12-02T10:43:20.434Z,7.33
2016-12-02T10:44:20.420Z,7.33
2016-12-02T10:45:20.432Z,7.38
2016-12-02T10:46:20.520Z,7.42
2016-12-02T10:47:20.458Z,7.43
2016-12-02T10:48:20.508Z,7.36
2016-12-02T10:49:20.411Z,7.47
2016-12-02T10:50:20.420Z,7.42
2016-12-02T10:51:20.442Z,7.45
2016-12-02T10:52:20.450Z,7.51
2016-12-02T10:53:20.460Z,7.51
2016-12-02T10:54:20.477Z,7.51
2016-12-02T10:55:20.489Z,7.51
2016-12-02T10:56:20.551Z,7.48
2016-12-02T10:57:20.509Z,7.47
2016-12-02T10:58:20.641Z,7.51
2016-12-02T10:59:20.541Z,7.53
2016-12-02T11:00:20.554Z,7.54
2016-12-02T11:01:20.568Z,7.53
2016-12-02T11:02:20.581Z,7.51
2016-12-02T11:03:20.742Z,7.51
2016-12-02T11:04:20.604Z,7.66
2016-12-02T11:05:20.620Z,7.67
2016-12-02T11:06:20.631Z,7.66
2016-12-02T11:07:20.655Z,7.58
2016-12-02T11:08:20.658Z,7.69
2016-12-02T11:09:20.683Z,7.6
2016-12-02T11:10:20.687Z,7.63
2016-12-02T11:11:20.709Z,7.73
2016-12-02T11:12:20.866Z,7.76
2016-12-02T11:13:20.729Z,7.72
2016-12-02T11:14:20.737Z,7.7
2016-12-02T11:15:20.754Z,7.73
2016-12-02T11:16:20.813Z,7.77
2016-12-02T11:17:20.780Z,7.8
2016-12-02T11:18:21.108Z,7.8
2016-12-02T11:19:20.810Z,7.79
2016-12-02T11:20:20.821Z,7.83
2016-12-02T11:21:20.834Z,7.77
2016-12-02T11:22:20.843Z,7.82
2016-12-02T11:23:20.856Z,7.79
2016-12-02T11:24:20.878Z,7.76
2016-12-02T11:25:20.888Z,7.82
2016-12-02T11:26:20.901Z,7.88
2016-12-02T11:27:20.977Z,7.93
2016-12-02T11:28:20.925Z,8
2016-12-02T11:29:20.937Z,7.91
2016-12-02T11:30:21.009Z,8
2016-12-02T11:31:20.968Z,7.93
2016-12-02T11:32:20.981Z,7.98
2016-12-02T11:33:20.992Z,7.94
2016-12-02T11:34:21.005Z,7.97
2016-12-02T11:35:21.021Z,7.97
2016-12-02T11:36:21.212Z,8.01
2016-12-02T11:37:21.163Z,8
2016-12-02T11:38:21.174Z,7.95
2016-12-02T11:39:21.180Z,7.98
2016-12-02T11:40:21.188Z,8.03
2016-12-02T11:41:21.301Z,7.98
2016-12-02T11:42:21.157Z,7.98
2016-12-02T11:43:21.165Z,8.01
2016-12-02T11:44:21.175Z,8
2016-12-02T11:45:21.174Z,8.03
2016-12-02T11:46:21.185Z,8.01
2016-12-02T11:47:21.190Z,8.01
2016-12-02T11:48:21.204Z,8
2016-12-02T11:49:21.211Z,8.06
2016-12-02T11:50:21.252Z,8.01
2016-12-02T11:51:21.248Z,8.09
2016-12-02T11:52:21.251Z,8.03
2016-12-02T11:53:21.264Z,8.12
2016-12-02T11:54:21.283Z,8.12
2016-12-02T11:55:21.292Z,8.16
2016-12-02T11:56:21.305Z,8.15
2016-12-02T11:57:21.327Z,8.15
2016-12-02T11:58:21.331Z,8.15
2016-12-02T11:59:21.350Z,8.15
2016-12-02T12:00:21.358Z,8.2
2016-12-02T12:01:21.378Z,8.15
2016-12-02T12:02:21.394Z,8.19
2016-12-02T12:03:21.411Z,8.15
2016-12-02T12:04:21.414Z,8.15
2016-12-02T12:05:21.427Z,8.19
2016-12-02T12:06:21.445Z,8.1
2016-12-02T12:07:21.461Z,8.18
2016-12-02T12:08:21.475Z,8.18
2016-12-02T12:09:21.486Z,8.24
2016-12-02T12:10:21.495Z,8.2
2016-12-02T12:11:21.511Z,8.2
2016-12-02T12:12:21.527Z,8.24
2016-12-02T12:13:21.539Z,8.16
2016-12-02T12:14:21.561Z,8.2
2016-12-02T12:15:21.569Z,8.19
2016-12-02T12:16:21.582Z,8.18
2016-12-02T12:17:21.594Z,8.3
2016-12-02T12:18:21.612Z,8.33
2016-12-02T12:19:21.616Z,8.31
2016-12-02T12:20:21.633Z,8.34
2016-12-02T12:21:21.647Z,8.36
2016-12-02T12:22:21.668Z,8.37
2016-12-02T12:23:21.675Z,8.37
2016-12-02T12:24:21.695Z,8.41
2016-12-02T12:25:21.707Z,8.28
2016-12-02T12:26:21.715Z,8.36
2016-12-02T12:27:21.735Z,8.41
2016-12-02T12:28:21.743Z,8.41
2016-12-02T12:29:21.759Z,8.37
2016-12-02T12:30:21.775Z,8.33
2016-12-02T12:31:21.788Z,8.36
2016-12-02T12:32:21.803Z,8.33
2016-12-02T12:33:21.815Z,8.41
2016-12-02T12:34:21.829Z,8.41
2016-12-02T12:35:21.840Z,8.48
2016-12-02T12:36:21.860Z,8.41
2016-12-02T12:37:21.878Z,8.42
2016-12-02T12:38:21.950Z,8.44
2016-12-02T12:39:21.926Z,8.46
2016-12-02T12:40:21.916Z,8.49
2016-12-02T12:41:21.922Z,8.42
2016-12-02T12:42:21.939Z,8.46
2016-12-02T12:43:21.955Z,8.44
2016-12-02T12:44:21.970Z,8.44
2016-12-02T12:45:22.005Z,8.42
2016-12-02T12:46:21.995Z,8.45
2016-12-02T12:47:22.007Z,8.42
2016-12-02T12:48:22.028Z,8.46
2016-12-02T12:49:22.109Z,8.49
2016-12-02T12:50:22.132Z,8.46
2016-12-02T12:51:22.147Z,8.36
2016-12-02T12:52:22.152Z,8.34
2016-12-02T12:53:22.160Z,8.45
2016-12-02T12:54:22.174Z,8.33
2016-12-02T12:55:22.121Z,8.36
2016-12-02T12:56:22.135Z,8.31
2016-12-02T12:57:22.146Z,8.38
2016-12-02T12:58:22.164Z,8.37
2016-12-02T12:59:22.177Z,8.37
2016-12-02T13:00:22.188Z,8.33
2016-12-02T13:01:22.207Z,8.33
2016-12-02T13:02:22.220Z,8.34
2016-12-02T13:03:22.233Z,8.34
2016-12-02T13:04:22.244Z,8.38
2016-12-02T13:05:22.256Z,8.33
2016-12-02T13:06:22.274Z,8.31
2016-12-02T13:07:22.368Z,8.33
2016-12-02T13:08:22.306Z,8.36
2016-12-02T13:09:22.316Z,8.31
2016-12-02T13:10:22.330Z,8.31
2016-12-02T13:11:22.344Z,8.18
2016-12-02T13:12:22.355Z,8.23
2016-12-02T13:13:22.372Z,8.36
2016-12-02T13:14:22.389Z,8.24
2016-12-02T13:15:22.402Z,8.26
2016-12-02T13:16:22.419Z,8.31
2016-12-02T13:17:22.428Z,8.2
2016-12-02T13:18:22.448Z,8.33
2016-12-02T13:19:22.458Z,8.23
2016-12-02T13:20:22.469Z,8.2
2016-12-02T13:21:22.487Z,8.23